Time;durP1;ratioP1;P1;durP2;ratioP2;P2;SDS_P1;SDS_P2;PMS_P1;PMS_P2;Temp;Humidity;BMP_temperature;BMP_pressure;BME280_temperature;BME280_humidity;BME280_pressure;Samples;Min_cycle;Max_cycle;Signal;HPM_P1;HPM_P2
2022/06/15 00:02:36;;;;;;;1.92;1.58;;;20.30;99.20;;;;;;10313692;28;20276;-83
2022/06/15 00:07:38;;;;;;;2.92;1.92;;;20.30;99.20;;;;;;10326556;28;20332;-83
2022/06/15 00:12:41;;;;;;;3.35;1.50;;;20.30;99.20;;;;;;10310217;28;20228;-83
2022/06/15 00:17:44;;;;;;;1.83;1.67;;;20.30;99.20;;;;;;10327663;28;20965;-83
2022/06/15 00:22:47;;;;;;;2.05;1.40;;;20.30;99.20;;;;;;10312762;28;20236;-83
2022/06/15 00:27:49;;;;;;;2.15;1.52;;;20.30;99.30;;;;;;10312522;28;20288;-83
2022/06/15 00:32:52;;;;;;;2.28;1.50;;;20.30;99.30;;;;;;10311173;28;20288;-83
2022/06/15 00:37:54;;;;;;;4.07;1.67;;;20.30;99.30;;;;;;10292898;28;20308;-83
2022/06/15 00:42:57;;;;;;;5.07;1.85;;;20.30;99.20;;;;;;10311246;28;20681;-83
2022/06/15 00:47:59;;;;;;;1.50;1.40;;;20.30;99.20;;;;;;10324722;28;20358;-83
2022/06/15 00:53:07;;;;;;;3.53;1.73;;;20.30;99.20;;;;;;10311679;28;20249;-83
2022/06/15 00:58:10;;;;;;;4.10;1.58;;;20.30;99.20;;;;;;10326131;28;20360;-83
2022/06/15 01:03:13;;;;;;;2.78;1.85;;;20.30;99.20;;;;;;10310492;28;20403;-83
2022/06/15 01:08:21;;;;;;;1.98;1.70;;;20.30;99.20;;;;;;10311099;28;20362;-83
2022/06/15 01:13:29;;;;;;;2.42;1.60;;;20.30;99.10;;;;;;10307088;28;20295;-83
2022/06/15 01:18:39;;;;;;;1.98;1.55;;;20.30;99.20;;;;;;10313025;28;20338;-83
2022/06/15 01:24:00;;;;;;;3.90;2.22;;;20.20;99.20;;;;;;10312826;28;20236;-83
2022/06/15 01:29:37;;;;;;;1.92;1.48;;;20.20;99.20;;;;;;10310254;28;20229;-83
2022/06/15 01:34:58;;;;;;;2.17;1.95;;;20.30;99.10;;;;;;10315483;28;20287;-83
2022/06/15 01:40:05;;;;;;;2.72;1.70;;;20.30;99.20;;;;;;10311772;28;20708;-84
2022/06/15 01:45:12;;;;;;;1.92;1.73;;;20.30;99.40;;;;;;10324351;28;20229;-83
2022/06/15 01:50:30;;;;;;;1.65;1.55;;;20.30;99.10;;;;;;10307661;28;20240;-83
2022/06/15 01:55:44;;;;;;;3.47;1.73;;;20.30;99.10;;;;;;10324896;28;20237;-83
2022/06/15 02:00:57;;;;;;;2.28;1.50;;;20.30;99.00;;;;;;10305365;28;20249;-83
2022/06/15 02:06:25;;;;;;;1.60;1.50;;;20.30;98.90;;;;;;10318011;28;20240;-83
2022/06/15 02:11:38;;;;;;;3.03;1.60;;;20.30;98.90;;;;;;10322890;28;20240;-83
2022/06/15 02:16:52;;;;;;;1.70;1.60;;;20.30;98.90;;;;;;10313789;28;20267;-83
2022/06/15 02:21:57;;;;;;;1.92;1.65;;;20.20;98.90;;;;;;10324595;28;20256;-83
2022/06/15 02:27:01;;;;;;;2.03;1.80;;;20.30;98.90;;;;;;10308490;28;20201;-83
2022/06/15 02:32:12;;;;;;;3.38;2.33;;;20.20;98.90;;;;;;10308884;28;20291;-83
2022/06/15 02:37:14;;;;;;;2.03;1.85;;;20.20;98.80;;;;;;10329198;28;20241;-83
2022/06/15 02:42:26;;;;;;;5.40;2.00;;;20.30;98.80;;;;;;10347804;28;20253;-83
2022/06/15 02:47:36;;;;;;;1.92;1.70;;;20.30;98.80;;;;;;10331649;28;20236;-83
2022/06/15 02:52:54;;;;;;;2.78;1.70;;;20.20;98.80;;;;;;10331283;28;20730;-83
2022/06/15 02:58:15;;;;;;;1.75;1.40;;;20.20;98.80;;;;;;10331315;28;20243;-83
2022/06/15 03:03:24;;;;;;;3.80;1.63;;;20.20;98.70;;;;;;10347278;28;20197;-83
2022/06/15 03:08:37;;;;;;;2.42;2.13;;;20.30;98.70;;;;;;10346993;28;20209;-83
2022/06/15 03:13:47;;;;;;;1.70;1.50;;;20.30;98.70;;;;;;10330963;28;20271;-83
2022/06/15 03:18:50;;;;;;;1.55;1.45;;;20.30;98.60;;;;;;10330454;28;20276;-83
2022/06/15 03:23:52;;;;;;;2.47;2.28;;;20.30;98.60;;;;;;10330412;28;20264;-83
2022/06/15 03:28:55;;;;;;;2.22;1.85;;;20.30;98.60;;;;;;10330269;28;20626;-83
2022/06/15 03:34:02;;;;;;;2.03;1.73;;;20.30;98.50;;;;;;10330157;28;20209;-83
2022/06/15 03:39:05;;;;;;;1.88;1.50;;;20.30;98.50;;;;;;10314400;28;20867;-83
2022/06/15 03:44:15;;;;;;;2.72;1.88;;;20.30;98.50;;;;;;10329895;28;20205;-83
2022/06/15 03:49:18;;;;;;;2.47;1.80;;;20.30;98.40;;;;;;10345913;28;20240;-83
2022/06/15 03:54:22;;;;;;;2.75;1.75;;;20.30;98.40;;;;;;10329727;28;20255;-83
2022/06/15 03:59:28;;;;;;;1.90;1.80;;;20.40;98.30;;;;;;10329291;28;20264;-83
2022/06/15 04:04:37;;;;;;;1.60;1.50;;;20.40;98.30;;;;;;10329244;28;20208;-84
2022/06/15 04:09:41;;;;;;;2.13;1.90;;;20.40;98.20;;;;;;10336124;28;20232;-84
2022/06/15 04:14:44;;;;;;;1.70;1.55;;;20.40;98.20;;;;;;10347448;28;20602;-83
2022/06/15 04:25:24;;;;;;;2.35;2.15;;;20.40;98.30;;;;;;10366371;28;20228;-84
2022/06/15 04:30:27;;;;;;;2.45;1.75;;;20.40;98.30;;;;;;10341363;28;20761;-84
2022/06/15 04:35:30;;;;;;;2.55;1.70;;;20.50;98.20;;;;;;10342737;28;20212;-84
2022/06/15 04:40:37;;;;;;;2.05;1.90;;;20.50;98.10;;;;;;10345604;28;20268;-84
2022/06/15 04:45:40;;;;;;;3.22;1.70;;;20.50;98.20;;;;;;10342692;28;20232;-84
2022/06/15 04:50:45;;;;;;;1.58;1.40;;;20.40;98.30;;;;;;10343706;28;20267;-84
2022/06/15 04:55:47;;;;;;;2.42;1.92;;;20.40;98.30;;;;;;10327110;28;20228;-84
2022/06/15 05:00:51;;;;;;;3.13;2.22;;;20.40;98.40;;;;;;10342525;28;20268;-84
2022/06/15 05:05:57;;;;;;;3.05;2.40;;;20.40;98.50;;;;;;10326703;28;20290;-84
2022/06/15 05:11:02;;;;;;;3.35;1.90;;;20.50;98.30;;;;;;10342992;28;20860;-84
2022/06/15 05:16:08;;;;;;;3.17;1.95;;;20.50;98.20;;;;;;10342332;28;20279;-84
2022/06/15 05:21:10;;;;;;;2.97;2.40;;;20.50;98.20;;;;;;10327776;28;20287;-84
2022/06/15 05:26:14;;;;;;;1.95;1.80;;;20.40;98.40;;;;;;10325866;28;20291;-84
2022/06/15 05:31:22;;;;;;;2.70;2.20;;;20.50;98.30;;;;;;10326196;28;20286;-84
2022/06/15 05:36:31;;;;;;;2.53;2.03;;;20.50;98.30;;;;;;10343107;28;20294;-83
2022/06/15 05:41:34;;;;;;;2.10;1.90;;;20.50;98.30;;;;;;10343064;28;20744;-83
2022/06/15 05:46:42;;;;;;;2.08;1.88;;;20.50;98.30;;;;;;10345479;28;20232;-84
2022/06/15 05:52:20;;;;;;;2.40;1.73;;;20.60;98.30;;;;;;10335488;28;20244;-83
2022/06/15 05:57:26;;;;;;;3.83;2.15;;;20.60;98.30;;;;;;10325722;28;20625;-84
2022/06/15 06:02:28;;;;;;;3.15;2.00;;;20.60;98.30;;;;;;10325499;28;20260;-84
2022/06/15 06:07:31;;;;;;;5.20;3.20;;;20.60;98.20;;;;;;10323514;28;20295;-84
2022/06/15 06:12:33;;;;;;;2.35;2.00;;;20.50;95.20;;;;;;10328855;28;20294;-84
2022/06/15 06:17:36;;;;;;;2.17;1.80;;;20.70;98.30;;;;;;10321653;28;20268;-84
2022/06/15 06:22:38;;;;;;;2.10;1.70;;;20.80;97.00;;;;;;10334090;28;20249;-83
2022/06/15 06:27:41;;;;;;;2.63;2.00;;;20.80;98.00;;;;;;10332901;28;20237;-84
2022/06/15 06:32:45;;;;;;;2.03;1.85;;;20.90;97.80;;;;;;10337035;28;20272;-84
2022/06/15 06:37:47;;;;;;;2.75;2.20;;;21.00;97.00;;;;;;10297845;28;20271;-84
2022/06/15 06:42:50;;;;;;;6.07;2.22;;;21.00;97.50;;;;;;10292883;28;20253;-84
2022/06/15 06:47:56;;;;;;;3.63;2.03;;;21.00;96.30;;;;;;10331335;28;20236;-84
2022/06/15 06:53:04;;;;;;;4.15;1.33;;;20.90;97.50;;;;;;10332364;28;20290;-84
2022/06/15 06:58:07;;;;;;;2.17;1.92;;;21.20;96.70;;;;;;10332290;28;20677;-84
2022/06/15 07:03:10;;;;;;;2.03;1.90;;;21.00;97.00;;;;;;10346221;28;20291;-84
2022/06/15 07:08:14;;;;;;;2.42;2.08;;;21.20;96.60;;;;;;10327531;28;20228;-84
2022/06/15 07:13:18;;;;;;;7.32;1.88;;;21.30;96.80;;;;;;10331175;28;20209;-93
2022/06/15 07:18:21;;;;;;;7.30;1.83;;;20.30;93.60;;;;;;10310641;28;20230;-92
2022/06/15 07:23:23;;;;;;;6.10;1.55;;;20.60;93.90;;;;;;10309106;28;20276;-92
2022/06/15 07:28:26;;;;;;;8.88;2.25;;;20.80;93.80;;;;;;10294702;28;20206;-92
2022/06/15 07:33:29;;;;;;;10.55;2.10;;;21.10;93.80;;;;;;10310054;28;20194;-93
2022/06/15 07:38:31;;;;;;;7.35;1.88;;;20.70;93.90;;;;;;10310304;28;20660;-93
2022/06/15 07:43:35;;;;;;;3.78;1.58;;;20.80;94.30;;;;;;10310032;28;20229;-92
2022/06/15 07:54:05;;;;;;;6.80;1.67;;;20.90;94.00;;;;;;10309274;28;20217;-94
2022/06/15 07:59:08;;;;;;;7.40;1.77;;;20.80;92.90;;;;;;10294170;28;20260;-92
2022/06/15 08:04:12;;;;;;;6.78;1.77;;;21.10;93.60;;;;;;10309470;28;20213;-91
2022/06/15 08:09:15;;;;;;;4.30;1.52;;;21.00;94.20;;;;;;10293498;28;20214;-94
2022/06/15 08:14:17;;;;;;;2.75;1.70;;;21.00;93.10;;;;;;10309432;28;20582;-94
2022/06/15 08:19:20;;;;;;;5.38;1.60;;;21.10;94.30;;;;;;10292141;28;20272;-93
2022/06/15 08:24:24;;;;;;;3.30;1.30;;;21.20;93.90;;;;;;10307574;28;20253;-93
2022/06/15 08:29:27;;;;;;;1.50;1.05;;;21.40;93.80;;;;;;10310257;28;20259;-94
2022/06/15 08:34:33;;;;;;;3.70;1.25;;;21.60;93.50;;;;;;10308732;28;20245;-93
2022/06/15 08:39:36;;;;;;;3.55;1.35;;;21.50;93.10;;;;;;10308689;28;20214;-95
2022/06/15 08:44:49;;;;;;;2.65;1.02;;;21.50;92.10;;;;;;10308933;28;20190;-95
2022/06/15 08:50:15;;;;;;;6.40;1.77;;;21.40;92.30;;;;;;10307307;28;20205;-93
2022/06/15 08:55:41;;;;;;;3.03;1.30;;;21.50;91.70;;;;;;10306500;28;20252;-94
2022/06/15 09:00:45;;;;;;;3.22;1.60;;;21.50;93.10;;;;;;10278229;28;20724;-84
2022/06/15 09:06:04;;;;;;;1.83;1.00;;;21.30;90.70;;;;;;10253889;28;20238;-85
2022/06/15 09:11:34;;;;;;;9.57;1.10;;;22.50;89.10;;;;;;10232344;28;20238;-85
2022/06/15 09:16:43;;;;;;;6.05;1.10;;;;;;;;;;10265797;28;20260;-82
2022/06/15 09:21:57;;;;;;;1.42;0.95;;;23.60;86.50;;;;;;10282154;28;20323;-82
2022/06/15 09:27:04;;;;;;;5.47;0.98;;;23.70;87.30;;;;;;10267304;28;20260;-82
2022/06/15 09:32:23;;;;;;;3.97;1.00;;;24.10;85.90;;;;;;10265993;28;20424;-82
2022/06/15 09:37:30;;;;;;;3.15;0.88;;;23.90;83.20;;;;;;10314353;28;20691;-83
2022/06/15 09:42:55;;;;;;;3.15;1.20;;;24.40;86.30;;;;;;10325080;28;20283;-82
2022/06/15 09:48:05;;;;;;;2.60;0.90;;;24.60;85.70;;;;;;10332856;28;20625;-82
2022/06/15 09:53:18;;;;;;;2.97;1.38;;;24.50;85.80;;;;;;10334185;28;20209;-82
2022/06/15 09:58:25;;;;;;;1.00;0.93;;;24.90;85.50;;;;;;10334717;28;20259;-82
2022/06/15 10:03:38;;;;;;;2.25;0.95;;;25.00;85.30;;;;;;10332472;28;20717;-82
2022/06/15 10:08:40;;;;;;;0.85;0.68;;;25.20;85.10;;;;;;10335183;28;20233;-83
2022/06/15 10:13:44;;;;;;;2.03;0.80;;;25.00;84.00;;;;;;10334892;28;20299;-83
2022/06/15 10:18:53;;;;;;;2.67;1.25;;;24.50;86.60;;;;;;10332792;28;20272;-83
2022/06/15 10:24:19;;;;;;;1.77;0.57;;;24.40;86.30;;;;;;10334690;28;20260;-83
2022/06/15 10:29:29;;;;;;;2.38;0.82;;;24.70;87.20;;;;;;10334020;28;20228;-83
2022/06/15 10:34:54;;;;;;;3.15;0.70;;;24.90;87.00;;;;;;10337252;28;20233;-83
2022/06/15 10:40:02;;;;;;;5.05;1.05;;;24.80;87.30;;;;;;10332848;28;20237;-83
2022/06/15 10:45:08;;;;;;;1.17;0.80;;;24.70;87.60;;;;;;10332936;28;20634;-83
2022/06/15 10:50:42;;;;;;;1.45;0.52;;;24.80;87.40;;;;;;10333964;28;20228;-83
2022/06/15 11:02:08;;;;;;;1.73;0.90;;;24.10;88.10;;;;;;10332080;28;20763;-83
2022/06/15 11:07:44;;;;;;;1.30;0.70;;;24.50;88.60;;;;;;10332597;28;20620;-83
2022/06/15 11:13:03;;;;;;;0.60;0.50;;;24.80;87.00;;;;;;10331504;28;20236;-83
2022/06/15 11:18:20;;;;;;;1.88;0.70;;;24.60;86.70;;;;;;10313887;28;20237;-83
2022/06/15 11:23:24;;;;;;;1.85;0.90;;;24.80;88.00;;;;;;10331358;28;20989;-84
2022/06/15 11:28:37;;;;;;;1.35;0.63;;;24.80;86.00;;;;;;10328887;28;20291;-83
2022/06/15 11:33:44;;;;;;;1.52;0.75;;;24.80;87.80;;;;;;10328957;28;20614;-86
2022/06/15 11:38:56;;;;;;;2.38;1.02;;;25.00;87.10;;;;;;10330631;28;20244;-83
2022/06/15 11:44:01;;;;;;;0.68;0.60;;;25.00;87.60;;;;;;10330572;28;20643;-83
2022/06/15 11:49:41;;;;;;;0.88;0.75;;;24.90;86.60;;;;;;10311272;28;20686;-83
2022/06/15 11:54:50;;;;;;;1.58;1.00;;;24.70;87.90;;;;;;10329691;28;20248;-82
2022/06/15 12:00:23;;;;;;;1.58;0.90;;;24.60;84.20;;;;;;10327825;28;20245;-82
2022/06/15 12:05:34;;;;;;;2.60;1.30;;;24.60;88.90;;;;;;10326997;28;20240;-82
2022/06/15 12:10:51;;;;;;;1.02;0.90;;;24.20;88.30;;;;;;10327512;28;20237;-82
2022/06/15 12:16:04;;;;;;;2.53;1.00;;;24.20;90.00;;;;;;10327683;28;20260;-82
2022/06/15 12:21:18;;;;;;;0.98;0.70;;;24.20;90.20;;;;;;10318793;28;20256;-82
2022/06/15 12:27:01;;;;;;;1.58;0.77;;;24.10;90.40;;;;;;10325061;28;20272;-82
2022/06/15 12:32:37;;;;;;;0.60;0.60;;;24.10;90.40;;;;;;10328837;28;20228;-83
2022/06/15 12:37:49;;;;;;;0.98;0.88;;;24.20;90.50;;;;;;10321767;28;20675;-82
2022/06/15 12:43:16;;;;;;;1.27;0.80;;;24.20;90.40;;;;;;10337550;28;20248;-83
2022/06/15 12:48:21;;;;;;;1.00;0.90;;;24.20;90.60;;;;;;10341348;28;20229;-83
2022/06/15 12:54:02;;;;;;;0.90;0.50;;;24.00;90.60;;;;;;10327135;28;20232;-83
2022/06/15 12:59:04;;;;;;;1.75;0.50;;;24.10;90.80;;;;;;10324643;28;20287;-83
2022/06/15 13:04:28;;;;;;;0.60;0.60;;;24.20;90.70;;;;;;10327338;28;20694;-83
2022/06/15 13:09:31;;;;;;;1.02;0.82;;;24.20;90.60;;;;;;10325477;28;20237;-82
2022/06/15 13:14:36;;;;;;;0.93;0.73;;;24.10;90.80;;;;;;10322075;28;20772;-82
2022/06/15 13:19:44;;;;;;;1.45;0.82;;;24.10;90.90;;;;;;10326094;28;20272;-82
2022/06/15 13:25:04;;;;;;;1.77;1.02;;;24.30;90.60;;;;;;10326287;28;20307;-82
2022/06/15 13:30:27;;;;;;;1.55;1.00;;;24.30;89.10;;;;;;10324773;28;20667;-82
2022/06/15 13:35:36;;;;;;;4.68;1.75;;;24.30;90.60;;;;;;10324505;28;20290;-82
2022/06/15 13:40:54;;;;;;;1.50;0.90;;;24.20;89.10;;;;;;10322953;28;20620;-82
2022/06/15 13:46:00;;;;;;;1.55;0.88;;;24.50;90.10;;;;;;10338649;28;20720;-82
2022/06/15 13:51:38;;;;;;;1.60;0.70;;;24.50;89.90;;;;;;10326769;28;20240;-81
2022/06/15 13:57:11;;;;;;;1.33;1.20;;;24.30;87.60;;;;;;10286278;28;20665;-85
2022/06/15 14:02:23;;;;;;;3.15;1.10;;;24.20;76.30;;;;;;10324265;28;20693;-81
2022/06/15 14:07:44;;;;;;;4.38;0.65;;;23.40;74.70;;;;;;10326199;28;20276;-82
2022/06/15 14:13:17;;;;;;;4.35;1.00;;;24.00;75.40;;;;;;10323936;28;20287;-82
2022/06/15 14:18:30;;;;;;;2.88;1.10;;;24.20;74.00;;;;;;10321067;28;20268;-83
2022/06/15 14:23:36;;;;;;;1.90;1.20;;;24.00;77.80;;;;;;10340703;28;20249;-82
2022/06/15 14:28:47;;;;;;;7.43;2.47;;;23.90;81.30;;;;;;10326298;28;20264;-82
2022/06/15 14:34:12;;;;;;;1.35;0.90;;;23.70;72.90;;;;;;10330024;28;20745;-82
2022/06/15 14:39:17;;;;;;;2.63;1.10;;;22.70;73.80;;;;;;10332783;28;20236;-82
2022/06/15 14:44:23;;;;;;;4.93;1.45;;;22.30;73.50;;;;;;10332306;28;20303;-82
2022/06/15 14:49:38;;;;;;;2.00;1.25;;;22.10;76.60;;;;;;10332634;28;20224;-82
2022/06/15 14:54:43;;;;;;;4.47;1.92;;;21.50;75.70;;;;;;10331598;28;20232;-82
2022/06/15 14:59:55;;;;;;;2.45;1.38;;;21.60;76.90;;;;;;10349705;28;20271;-82
2022/06/15 15:04:58;;;;;;;3.17;1.02;;;21.90;74.50;;;;;;10339144;28;20248;-83
2022/06/15 15:10:00;;;;;;;2.95;0.90;;;21.90;74.80;;;;;;10335019;28;20271;-82
2022/06/15 15:15:04;;;;;;;3.38;1.23;;;22.10;74.70;;;;;;10332237;28;20237;-82
2022/06/15 15:20:35;;;;;;;1.60;1.13;;;22.20;88.90;;;;;;10333663;28;20265;-82
2022/06/15 15:25:42;;;;;;;5.30;1.60;;;22.20;78.80;;;;;;10332326;28;20279;-83
2022/06/15 15:41:43;;;;;;;6.57;1.42;;;22.30;81.20;;;;;;10328416;28;20225;-83
2022/06/15 15:46:46;;;;;;;2.03;1.10;;;22.70;79.20;;;;;;10332446;28;20287;-93
2022/06/15 15:51:48;;;;;;;3.45;1.17;;;22.90;85.70;;;;;;10335168;28;20259;-92
2022/06/15 15:56:51;;;;;;;4.97;1.40;;;23.30;84.60;;;;;;10334543;28;20217;-93
2022/06/15 16:01:55;;;;;;;6.63;1.33;;;23.50;83.80;;;;;;10332728;28;20259;-92
2022/06/15 16:07:08;;;;;;;3.85;1.45;;;23.60;83.60;;;;;;10349917;28;20201;-91
2022/06/15 16:12:12;;;;;;;2.83;1.20;;;23.70;83.70;;;;;;10317308;28;20636;-93
2022/06/15 16:17:18;;;;;;;6.43;2.05;;;23.60;83.70;;;;;;10340081;28;20601;-92
2022/06/15 16:22:21;;;;;;;2.10;1.08;;;23.50;84.70;;;;;;10353445;28;20209;-94
2022/06/15 16:27:24;;;;;;;2.45;1.10;;;23.40;85.30;;;;;;10321153;28;20205;-94
2022/06/15 16:32:27;;;;;;;6.10;1.83;;;23.30;85.80;;;;;;10336112;28;20737;-93
2022/06/15 16:37:29;;;;;;;2.30;1.08;;;23.30;86.20;;;;;;10336853;28;20209;-95
2022/06/15 16:42:32;;;;;;;3.85;1.10;;;23.10;86.50;;;;;;10337068;28;20256;-94
2022/06/15 16:47:35;;;;;;;3.72;1.58;;;23.00;87.20;;;;;;10338754;28;20209;-93
2022/06/15 16:52:38;;;;;;;3.45;1.67;;;22.90;87.80;;;;;;10321895;28;20213;-95
2022/06/15 16:57:41;;;;;;;16.02;2.15;;;22.90;87.60;;;;;;10334955;28;20228;-87
2022/06/15 17:02:43;;;;;;;38.25;5.22;;;22.80;87.00;;;;;;10328641;28;20623;-82
2022/06/15 17:07:48;;;;;;;7.85;1.45;;;21.70;91.60;;;;;;10323954;28;20209;-83
2022/06/15 17:12:50;;;;;;;4.63;1.58;;;21.30;84.90;;;;;;10329724;28;20228;-80
2022/06/15 17:17:53;;;;;;;1.58;0.90;;;21.00;88.80;;;;;;10322856;28;20699;-82
2022/06/15 17:22:57;;;;;;;1.73;1.35;;;21.00;83.10;;;;;;10325575;28;20662;-83
2022/06/15 17:28:00;;;;;;;4.35;1.25;;;21.00;85.80;;;;;;10311514;28;20221;-82
2022/06/15 17:33:03;;;;;;;4.35;1.42;;;20.90;85.30;;;;;;10325407;28;20290;-83
2022/06/15 17:38:07;;;;;;;5.38;1.33;;;21.40;94.70;;;;;;10320706;28;20238;-82
2022/06/15 17:43:10;;;;;;;3.07;1.30;;;21.40;90.50;;;;;;9633049;28;10000598;-83
2022/06/15 17:48:16;;;;;;;4.35;1.55;;;22.40;99.30;;;;;;10313430;28;20963;-80
2022/06/15 17:53:18;;;;;;;2.85;1.58;;;22.30;92.90;;;;;;10323608;28;20295;-81
2022/06/15 17:58:22;;;;;;;4.82;1.40;;;22.10;92.80;;;;;;10322531;28;20233;-80
2022/06/15 18:03:25;;;;;;;4.72;1.77;;;21.90;94.40;;;;;;10321628;28;20315;-81
2022/06/15 18:08:30;;;;;;;7.35;1.65;;;21.80;99.80;;;;;;10326688;28;20291;-81
2022/06/15 18:13:38;;;;;;;2.58;1.42;;;21.50;96.60;;;;;;10332821;28;20705;-81
2022/06/15 18:18:43;;;;;;;5.43;1.90;;;20.70;96.40;;;;;;10326064;28;20272;-81
2022/06/15 18:23:46;;;;;;;4.28;1.40;;;20.40;98.70;;;;;;10330041;28;20306;-81
2022/06/15 18:28:49;;;;;;;3.83;1.88;;;20.10;99.90;;;;;;10329444;28;20233;-81
2022/06/15 18:33:52;;;;;;;10.75;1.48;;;19.70;99.90;;;;;;10328364;28;20267;-81
2022/06/15 18:38:55;;;;;;;5.85;1.20;;;19.30;99.90;;;;;;10330398;28;20237;-81
2022/06/15 18:49:19;;;;;;;15.45;1.63;;;18.40;99.90;;;;;;10332879;28;20201;-82
2022/06/15 18:54:21;;;;;;;7.70;1.90;;;18.10;99.90;;;;;;10326469;28;20275;-81
2022/06/15 18:59:24;;;;;;;11.30;2.10;;;17.60;99.90;;;;;;10330067;28;20233;-80
2022/06/15 19:04:27;;;;;;;11.45;2.72;;;17.20;99.90;;;;;;10329600;28;20244;-81
2022/06/15 19:09:30;;;;;;;12.43;3.13;;;16.70;99.90;;;;;;10340890;28;20311;-80
2022/06/15 19:14:33;;;;;;;18.40;2.67;;;16.20;99.90;;;;;;10327208;28;20641;-80
2022/06/15 19:19:35;;;;;;;8.38;2.60;;;15.90;99.90;;;;;;10328789;28;20652;-80
2022/06/15 19:24:40;;;;;;;12.93;2.80;;;15.70;99.90;;;;;;10346385;28;20298;-80
2022/06/15 19:29:44;;;;;;;11.97;3.33;;;15.50;99.90;;;;;;10347286;28;20260;-80
2022/06/15 19:34:47;;;;;;;14.67;5.10;;;15.20;99.90;;;;;;10328048;28;20244;-80
2022/06/15 19:39:49;;;;;;;9.73;3.10;;;15.00;99.90;;;;;;10330759;28;20279;-79
2022/06/15 19:44:52;;;;;;;10.00;3.10;;;14.80;99.90;;;;;;10329975;28;20249;-80
2022/06/15 19:49:55;;;;;;;16.07;4.47;;;14.80;99.90;;;;;;10331121;28;20235;-79
2022/06/15 19:55:04;;;;;;;11.37;4.03;;;14.60;99.90;;;;;;10344992;28;20243;-79
2022/06/15 20:00:15;;;;;;;13.30;3.37;;;14.40;99.90;;;;;;10345573;28;20252;-79
2022/06/15 20:05:20;;;;;;;13.47;5.60;;;14.30;99.90;;;;;;10331095;28;20264;-78
2022/06/15 20:10:24;;;;;;;19.10;3.83;;;14.20;99.90;;;;;;10344992;28;20228;-79
2022/06/15 20:15:27;;;;;;;16.13;5.77;;;13.90;99.90;;;;;;10341267;28;20268;-79
2022/06/15 20:20:34;;;;;;;7.93;2.90;;;13.80;99.90;;;;;;10340659;28;20246;-80
2022/06/15 20:25:40;;;;;;;6.20;3.20;;;13.80;99.90;;;;;;10327974;28;20256;-80
2022/06/15 20:30:43;;;;;;;3.87;2.93;;;13.70;99.90;;;;;;10343289;28;20582;-80
2022/06/15 20:35:45;;;;;;;5.60;3.00;;;13.60;99.90;;;;;;10328892;28;20643;-80
2022/06/15 20:40:48;;;;;;;5.80;3.00;;;13.60;99.90;;;;;;10327492;28;20626;-80
2022/06/15 20:45:52;;;;;;;4.40;3.10;;;13.70;99.90;;;;;;10327384;28;20901;-80
2022/06/15 20:51:14;;;;;;;7.93;3.23;;;13.60;99.90;;;;;;10327798;28;20285;-80
2022/06/15 21:01:38;;;;;;;12.53;3.50;;;13.60;99.90;;;;;;10299228;28;20923;-81
2022/06/15 21:06:43;;;;;;;4.97;3.30;;;13.70;99.90;;;;;;10342682;28;20283;-81
2022/06/15 21:22:29;;;;;;;5.40;3.67;;;13.70;99.90;;;;;;10327269;28;20239;-82
2022/06/15 21:27:32;;;;;;;4.63;3.17;;;16.40;99.90;;;;;;10321574;28;20667;-82
2022/06/15 21:32:35;;;;;;;8.02;3.67;;;18.40;99.90;;;;;;10321735;28;20236;-82
2022/06/15 21:37:38;;;;;;;6.88;3.13;;;19.60;99.90;;;;;;10301914;28;20703;-82
2022/06/15 21:42:42;;;;;;;5.13;2.50;;;20.40;99.90;;;;;;10347390;28;20240;-82
2022/06/15 21:47:47;;;;;;;3.85;2.40;;;21.00;99.90;;;;;;10335269;28;20260;-82
2022/06/15 21:52:51;;;;;;;5.30;3.25;;;21.30;99.90;;;;;;10334417;28;20666;-83
2022/06/15 21:57:54;;;;;;;5.30;2.35;;;21.60;99.90;;;;;;10341891;28;20208;-83
2022/06/15 22:02:57;;;;;;;5.05;2.13;;;21.80;99.90;;;;;;10376104;28;20244;-83
2022/06/15 22:08:00;;;;;;;3.75;2.80;;;21.90;99.90;;;;;;10349538;28;20286;-83
2022/06/15 22:13:03;;;;;;;3.53;2.20;;;22.00;99.90;;;;;;10333252;28;20310;-83
2022/06/15 22:18:06;;;;;;;5.25;2.55;;;22.10;99.90;;;;;;10348102;28;20287;-82
2022/06/15 22:23:09;;;;;;;4.53;2.20;;;22.10;99.90;;;;;;10332704;28;20319;-82
2022/06/15 22:28:11;;;;;;;3.65;2.17;;;22.20;99.90;;;;;;10327283;28;20268;-82
2022/06/15 22:33:14;;;;;;;4.30;2.53;;;22.20;99.90;;;;;;10334186;28;20228;-82
2022/06/15 22:38:16;;;;;;;2.40;2.05;;;22.20;99.90;;;;;;10334249;28;20232;-82
2022/06/15 22:43:22;;;;;;;2.63;2.35;;;22.20;99.90;;;;;;10334207;28;20248;-82
2022/06/15 22:53:46;;;;;;;4.25;2.60;;;22.20;99.90;;;;;;10338404;28;20346;-82
2022/06/15 22:58:49;;;;;;;3.38;2.53;;;22.20;99.90;;;;;;10314688;28;20233;-82
2022/06/15 23:03:51;;;;;;;4.22;2.30;;;22.20;99.90;;;;;;10332289;28;20295;-82
2022/06/15 23:08:54;;;;;;;3.08;2.30;;;22.20;99.90;;;;;;10330654;28;20209;-82
2022/06/15 23:13:56;;;;;;;9.35;3.95;;;22.20;99.90;;;;;;10332140;28;20263;-82
2022/06/15 23:19:00;;;;;;;4.18;2.40;;;17.90;99.90;;;;;;10332132;28;20319;-82
2022/06/15 23:24:02;;;;;;;4.20;2.50;;;18.60;99.90;;;;;;10330492;28;20248;-82
2022/06/15 23:29:07;;;;;;;3.85;2.33;;;20.60;99.90;;;;;;10329826;28;20232;-82
2022/06/15 23:34:09;;;;;;;3.08;2.45;;;21.30;99.90;;;;;;10331070;28;20244;-82
2022/06/15 23:39:12;;;;;;;4.30;2.30;;;21.60;99.90;;;;;;10343588;28;20254;-82
2022/06/15 23:44:15;;;;;;;3.05;2.40;;;21.80;99.90;;;;;;10354350;28;20256;-82
2022/06/15 23:49:18;;;;;;;2.85;2.20;;;21.90;99.90;;;;;;10331115;28;20279;-82
2022/06/15 23:54:21;;;;;;;2.78;2.45;;;21.90;99.90;;;;;;10329905;28;20213;-82
2022/06/15 23:59:24;;;;;;;4.20;2.78;;;21.90;99.90;;;;;;10329137;28;20225;-82
